Startpagina
METAR-TAF:

METAR-TAF

Vliegvelden :

Cambridge, Engeland

breedte: 52-12N, lengte: 000-11E, hoogte: 15 m

Actueel weer

Dit bericht is 2 uur en het 22 minuten geleden gemaakt, om 17:20 UTC
Wind 8 kt uit het noordoosten
Temperatuur 17°C
Vochtigheid 59%
Druk 1022 hPa
Zicht 10 km of meer
geen wolken onder 1500 m en geen cumulonimbus

METAR: EGSC 181720Z 05008KT CAVOK 17/09 Q1022

Tijdstip: 20:42 (19:42 UTC)

Verwachting

Dit bericht is 5 uur en het 46 minuten geleden gemaakt, om 13:56 UTC
Verwachting geldig van 18 om 15 UTC tot 18 om 17 UTC
Wind 12 kt uit het oostnoordoosten
Zicht 10 km of meer
geen wolken onder 1500 m en geen cumulonimbus

TAF: EGSC 181356Z 1815/1817 06012KT CAVOK

Waarnemingen en weersverwachtingen van meer dan 4000 vliegvelden (METAR en TAF).

De beschikbare stations zijn de gele en rode punten op de kaart.

Ga met uw muis naar het station om de naam te zien.

Klik dan om waarnemingen en weersverwachtingen te zien.

kaart wijzigen: klik op de groene knoppen met een zwart kruis om in te zoomen, op de groene knop met een streepje om uit te zoomen of op de groene pijlen voor aangrenzende kaarten.


METAR-TAF: